sensor_id;sensor_type;location;lat;lon;timestamp;P1;durP1;ratioP1;P2;durP2;ratioP2
10987;SDS011;5547;42.672;23.230;2022-12-20T00:02:25;151.02;;;43.40;;
10987;SDS011;5547;42.672;23.230;2022-12-20T00:05:25;144.00;;;42.93;;
10987;SDS011;5547;42.672;23.230;2022-12-20T00:08:26;141.70;;;42.50;;
10987;SDS011;5547;42.672;23.230;2022-12-20T00:11:26;144.77;;;43.03;;
10987;SDS011;5547;42.672;23.230;2022-12-20T00:14:27;151.33;;;44.70;;
10987;SDS011;5547;42.672;23.230;2022-12-20T00:17:28;158.17;;;46.90;;
10987;SDS011;5547;42.672;23.230;2022-12-20T00:20:28;158.83;;;45.40;;
10987;SDS011;5547;42.672;23.230;2022-12-20T00:23:29;153.25;;;44.70;;
10987;SDS011;5547;42.672;23.230;2022-12-20T00:26:30;152.43;;;43.85;;
10987;SDS011;5547;42.672;23.230;2022-12-20T00:29:32;156.45;;;45.28;;
10987;SDS011;5547;42.672;23.230;2022-12-20T00:32:32;153.35;;;43.05;;
10987;SDS011;5547;42.672;23.230;2022-12-20T00:35:33;162.57;;;43.00;;
10987;SDS011;5547;42.672;23.230;2022-12-20T00:38:34;157.40;;;42.70;;
10987;SDS011;5547;42.672;23.230;2022-12-20T00:41:35;163.93;;;42.53;;
10987;SDS011;5547;42.672;23.230;2022-12-20T00:44:35;188.53;;;43.97;;
10987;SDS011;5547;42.672;23.230;2022-12-20T00:47:36;154.50;;;42.43;;
10987;SDS011;5547;42.672;23.230;2022-12-20T00:50:36;153.40;;;43.13;;
10987;SDS011;5547;42.672;23.230;2022-12-20T00:53:37;151.35;;;43.45;;
10987;SDS011;5547;42.672;23.230;2022-12-20T00:56:38;147.65;;;43.00;;
10987;SDS011;5547;42.672;23.230;2022-12-20T00:59:38;142.87;;;43.37;;
10987;SDS011;5547;42.672;23.230;2022-12-20T01:02:39;145.43;;;43.87;;
10987;SDS011;5547;42.672;23.230;2022-12-20T01:05:39;147.85;;;43.55;;
10987;SDS011;5547;42.672;23.230;2022-12-20T01:08:48;148.80;;;44.28;;
10987;SDS011;5547;42.672;23.230;2022-12-20T01:11:48;147.57;;;43.50;;
10987;SDS011;5547;42.672;23.230;2022-12-20T01:14:49;145.37;;;43.17;;
10987;SDS011;5547;42.672;23.230;2022-12-20T01:17:49;144.52;;;44.28;;
10987;SDS011;5547;42.672;23.230;2022-12-20T01:20:59;146.25;;;43.85;;
10987;SDS011;5547;42.672;23.230;2022-12-20T01:24:00;143.05;;;43.20;;
10987;SDS011;5547;42.672;23.230;2022-12-20T01:27:01;142.47;;;42.90;;
10987;SDS011;5547;42.672;23.230;2022-12-20T01:30:01;142.52;;;43.35;;
10987;SDS011;5547;42.672;23.230;2022-12-20T01:33:02;141.83;;;42.27;;
10987;SDS011;5547;42.672;23.230;2022-12-20T01:36:04;141.68;;;41.60;;
10987;SDS011;5547;42.672;23.230;2022-12-20T01:39:12;140.05;;;41.78;;
10987;SDS011;5547;42.672;23.230;2022-12-20T01:42:15;138.98;;;42.15;;
10987;SDS011;5547;42.672;23.230;2022-12-20T01:45:19;142.37;;;42.23;;
10987;SDS011;5547;42.672;23.230;2022-12-20T01:48:27;142.18;;;41.65;;
10987;SDS011;5547;42.672;23.230;2022-12-20T01:51:28;140.38;;;41.67;;
10987;SDS011;5547;42.672;23.230;2022-12-20T01:54:32;138.43;;;41.40;;
10987;SDS011;5547;42.672;23.230;2022-12-20T01:57:42;138.00;;;41.28;;
10987;SDS011;5547;42.672;23.230;2022-12-20T02:00:46;139.20;;;42.13;;
10987;SDS011;5547;42.672;23.230;2022-12-20T02:03:48;137.73;;;41.50;;
10987;SDS011;5547;42.672;23.230;2022-12-20T02:06:50;137.60;;;41.50;;
10987;SDS011;5547;42.672;23.230;2022-12-20T02:09:50;140.07;;;41.97;;
10987;SDS011;5547;42.672;23.230;2022-12-20T02:12:56;141.65;;;42.50;;
10987;SDS011;5547;42.672;23.230;2022-12-20T02:16:04;136.45;;;40.55;;
10987;SDS011;5547;42.672;23.230;2022-12-20T02:19:56;138.83;;;41.93;;
10987;SDS011;5547;42.672;23.230;2022-12-20T02:26:24;141.50;;;41.72;;
10987;SDS011;5547;42.672;23.230;2022-12-20T02:33:12;139.68;;;40.70;;
10987;SDS011;5547;42.672;23.230;2022-12-20T02:36:15;139.98;;;40.60;;
10987;SDS011;5547;42.672;23.230;2022-12-20T02:39:18;138.70;;;40.30;;
10987;SDS011;5547;42.672;23.230;2022-12-20T02:42:21;139.60;;;40.17;;
10987;SDS011;5547;42.672;23.230;2022-12-20T02:45:25;139.48;;;40.72;;
10987;SDS011;5547;42.672;23.230;2022-12-20T02:48:32;140.07;;;40.20;;
10987;SDS011;5547;42.672;23.230;2022-12-20T02:51:37;140.52;;;41.20;;
10987;SDS011;5547;42.672;23.230;2022-12-20T02:54:42;142.98;;;41.38;;
10987;SDS011;5547;42.672;23.230;2022-12-20T03:01:00;142.90;;;40.90;;
10987;SDS011;5547;42.672;23.230;2022-12-20T03:04:05;143.50;;;41.57;;
10987;SDS011;5547;42.672;23.230;2022-12-20T03:07:08;142.45;;;42.38;;
10987;SDS011;5547;42.672;23.230;2022-12-20T03:10:10;145.93;;;42.33;;
10987;SDS011;5547;42.672;23.230;2022-12-20T03:13:11;145.77;;;42.17;;
10987;SDS011;5547;42.672;23.230;2022-12-20T03:16:12;145.48;;;42.80;;
10987;SDS011;5547;42.672;23.230;2022-12-20T03:19:12;145.27;;;42.90;;
10987;SDS011;5547;42.672;23.230;2022-12-20T03:22:13;147.73;;;43.13;;
10987;SDS011;5547;42.672;23.230;2022-12-20T03:25:13;148.33;;;42.90;;
10987;SDS011;5547;42.672;23.230;2022-12-20T03:28:13;114.57;;;40.37;;
10987;SDS011;5547;42.672;23.230;2022-12-20T03:31:14;113.67;;;41.07;;
10987;SDS011;5547;42.672;23.230;2022-12-20T03:34:14;114.68;;;40.72;;
10987;SDS011;5547;42.672;23.230;2022-12-20T03:37:15;112.77;;;40.90;;
10987;SDS011;5547;42.672;23.230;2022-12-20T03:40:15;114.05;;;40.10;;
10987;SDS011;5547;42.672;23.230;2022-12-20T03:43:16;112.10;;;40.10;;
10987;SDS011;5547;42.672;23.230;2022-12-20T03:46:16;114.67;;;40.50;;
10987;SDS011;5547;42.672;23.230;2022-12-20T03:49:17;115.97;;;41.10;;
10987;SDS011;5547;42.672;23.230;2022-12-20T03:52:17;122.37;;;41.23;;
10987;SDS011;5547;42.672;23.230;2022-12-20T03:55:18;117.60;;;40.40;;
10987;SDS011;5547;42.672;23.230;2022-12-20T03:58:18;129.20;;;40.93;;
10987;SDS011;5547;42.672;23.230;2022-12-20T04:01:23;129.85;;;40.88;;
10987;SDS011;5547;42.672;23.230;2022-12-20T04:04:25;129.57;;;41.05;;
10987;SDS011;5547;42.672;23.230;2022-12-20T04:07:25;128.83;;;40.73;;
10987;SDS011;5547;42.672;23.230;2022-12-20T04:10:26;128.23;;;41.67;;
10987;SDS011;5547;42.672;23.230;2022-12-20T04:13:27;125.47;;;41.37;;
10987;SDS011;5547;42.672;23.230;2022-12-20T04:16:28;128.52;;;41.55;;
10987;SDS011;5547;42.672;23.230;2022-12-20T04:19:29;140.88;;;41.13;;
10987;SDS011;5547;42.672;23.230;2022-12-20T04:22:30;123.80;;;41.37;;
10987;SDS011;5547;42.672;23.230;2022-12-20T04:25:30;89.82;;;40.47;;
10987;SDS011;5547;42.672;23.230;2022-12-20T04:28:30;87.03;;;40.27;;
10987;SDS011;5547;42.672;23.230;2022-12-20T04:31:31;126.20;;;41.67;;
10987;SDS011;5547;42.672;23.230;2022-12-20T04:34:31;168.57;;;50.87;;
10987;SDS011;5547;42.672;23.230;2022-12-20T04:37:32;88.72;;;41.33;;
10987;SDS011;5547;42.672;23.230;2022-12-20T04:40:32;75.10;;;39.70;;
10987;SDS011;5547;42.672;23.230;2022-12-20T04:43:33;74.67;;;39.97;;
10987;SDS011;5547;42.672;23.230;2022-12-20T04:46:33;78.75;;;40.95;;
10987;SDS011;5547;42.672;23.230;2022-12-20T04:49:33;84.60;;;43.40;;
10987;SDS011;5547;42.672;23.230;2022-12-20T04:52:34;85.43;;;45.83;;
10987;SDS011;5547;42.672;23.230;2022-12-20T04:55:53;113.00;;;54.70;;
10987;SDS011;5547;42.672;23.230;2022-12-20T04:58:54;197.97;;;64.77;;
10987;SDS011;5547;42.672;23.230;2022-12-20T05:01:55;108.30;;;51.13;;
10987;SDS011;5547;42.672;23.230;2022-12-20T05:04:56;100.30;;;45.97;;
10987;SDS011;5547;42.672;23.230;2022-12-20T05:07:57;95.97;;;44.72;;
10987;SDS011;5547;42.672;23.230;2022-12-20T05:10:58;127.78;;;57.75;;
10987;SDS011;5547;42.672;23.230;2022-12-20T05:13:58;125.63;;;58.80;;
10987;SDS011;5547;42.672;23.230;2022-12-20T05:16:59;141.10;;;59.83;;
10987;SDS011;5547;42.672;23.230;2022-12-20T05:19:59;157.60;;;53.90;;
10987;SDS011;5547;42.672;23.230;2022-12-20T05:23:00;152.43;;;48.60;;
10987;SDS011;5547;42.672;23.230;2022-12-20T05:26:19;107.50;;;46.78;;
10987;SDS011;5547;42.672;23.230;2022-12-20T05:29:20;162.98;;;48.65;;
10987;SDS011;5547;42.672;23.230;2022-12-20T05:32:20;131.23;;;49.90;;
10987;SDS011;5547;42.672;23.230;2022-12-20T05:35:21;108.43;;;48.85;;
10987;SDS011;5547;42.672;23.230;2022-12-20T05:38:22;104.90;;;49.27;;
10987;SDS011;5547;42.672;23.230;2022-12-20T05:41:23;104.10;;;49.05;;
10987;SDS011;5547;42.672;23.230;2022-12-20T05:44:23;102.40;;;49.30;;
10987;SDS011;5547;42.672;23.230;2022-12-20T05:47:24;105.47;;;49.80;;
10987;SDS011;5547;42.672;23.230;2022-12-20T05:50:24;100.53;;;47.73;;
10987;SDS011;5547;42.672;23.230;2022-12-20T05:53:25;101.65;;;47.58;;
10987;SDS011;5547;42.672;23.230;2022-12-20T05:56:25;138.63;;;47.53;;
10987;SDS011;5547;42.672;23.230;2022-12-20T05:59:26;97.15;;;46.35;;
10987;SDS011;5547;42.672;23.230;2022-12-20T06:02:26;97.10;;;46.87;;
10987;SDS011;5547;42.672;23.230;2022-12-20T06:05:26;95.43;;;46.13;;
10987;SDS011;5547;42.672;23.230;2022-12-20T06:08:27;94.65;;;46.05;;
10987;SDS011;5547;42.672;23.230;2022-12-20T06:11:27;93.83;;;47.20;;
10987;SDS011;5547;42.672;23.230;2022-12-20T06:14:28;93.43;;;47.37;;
10987;SDS011;5547;42.672;23.230;2022-12-20T06:17:28;97.30;;;48.83;;
10987;SDS011;5547;42.672;23.230;2022-12-20T06:20:29;98.23;;;47.63;;
10987;SDS011;5547;42.672;23.230;2022-12-20T06:23:30;99.00;;;48.83;;
10987;SDS011;5547;42.672;23.230;2022-12-20T06:26:30;105.57;;;48.78;;
10987;SDS011;5547;42.672;23.230;2022-12-20T06:29:35;93.85;;;46.47;;
10987;SDS011;5547;42.672;23.230;2022-12-20T06:32:36;101.43;;;49.60;;
10987;SDS011;5547;42.672;23.230;2022-12-20T06:35:37;92.23;;;46.17;;
10987;SDS011;5547;42.672;23.230;2022-12-20T06:38:37;86.03;;;44.08;;
10987;SDS011;5547;42.672;23.230;2022-12-20T06:41:38;87.97;;;44.37;;
10987;SDS011;5547;42.672;23.230;2022-12-20T06:44:39;87.65;;;43.80;;
10987;SDS011;5547;42.672;23.230;2022-12-20T06:47:40;89.10;;;43.50;;
10987;SDS011;5547;42.672;23.230;2022-12-20T06:50:40;88.65;;;43.97;;
10987;SDS011;5547;42.672;23.230;2022-12-20T06:53:41;86.20;;;42.90;;
10987;SDS011;5547;42.672;23.230;2022-12-20T06:56:41;91.33;;;42.53;;
10987;SDS011;5547;42.672;23.230;2022-12-20T06:59:41;85.63;;;42.13;;
10987;SDS011;5547;42.672;23.230;2022-12-20T07:02:45;94.35;;;46.13;;
10987;SDS011;5547;42.672;23.230;2022-12-20T07:05:50;86.57;;;42.55;;
10987;SDS011;5547;42.672;23.230;2022-12-20T07:08:52;84.93;;;42.30;;
10987;SDS011;5547;42.672;23.230;2022-12-20T07:11:52;88.45;;;42.42;;
10987;SDS011;5547;42.672;23.230;2022-12-20T07:14:53;88.20;;;42.93;;
10987;SDS011;5547;42.672;23.230;2022-12-20T07:17:53;89.90;;;42.65;;
10987;SDS011;5547;42.672;23.230;2022-12-20T07:20:58;67.30;;;41.57;;
10987;SDS011;5547;42.672;23.230;2022-12-20T07:24:00;71.38;;;41.45;;
10987;SDS011;5547;42.672;23.230;2022-12-20T07:27:00;69.03;;;41.17;;
10987;SDS011;5547;42.672;23.230;2022-12-20T07:30:01;67.00;;;40.23;;
10987;SDS011;5547;42.672;23.230;2022-12-20T07:33:01;70.00;;;41.13;;
10987;SDS011;5547;42.672;23.230;2022-12-20T07:36:02;64.37;;;40.27;;
10987;SDS011;5547;42.672;23.230;2022-12-20T07:39:04;61.72;;;38.55;;
10987;SDS011;5547;42.672;23.230;2022-12-20T07:42:05;64.77;;;39.27;;
10987;SDS011;5547;42.672;23.230;2022-12-20T07:45:05;65.45;;;40.35;;
10987;SDS011;5547;42.672;23.230;2022-12-20T07:48:07;65.15;;;39.67;;
10987;SDS011;5547;42.672;23.230;2022-12-20T07:51:11;62.30;;;39.67;;
10987;SDS011;5547;42.672;23.230;2022-12-20T07:54:16;58.92;;;37.83;;
10987;SDS011;5547;42.672;23.230;2022-12-20T07:57:22;63.75;;;39.85;;
10987;SDS011;5547;42.672;23.230;2022-12-20T08:00:26;62.97;;;39.22;;
10987;SDS011;5547;42.672;23.230;2022-12-20T08:03:29;61.10;;;38.00;;
10987;SDS011;5547;42.672;23.230;2022-12-20T08:06:36;65.22;;;39.88;;
10987;SDS011;5547;42.672;23.230;2022-12-20T08:09:40;62.17;;;39.33;;
10987;SDS011;5547;42.672;23.230;2022-12-20T08:12:42;59.90;;;38.17;;
10987;SDS011;5547;42.672;23.230;2022-12-20T08:15:46;64.78;;;39.97;;
10987;SDS011;5547;42.672;23.230;2022-12-20T08:18:46;67.37;;;39.90;;
10987;SDS011;5547;42.672;23.230;2022-12-20T08:21:47;64.37;;;39.10;;
10987;SDS011;5547;42.672;23.230;2022-12-20T08:24:47;63.43;;;39.20;;
10987;SDS011;5547;42.672;23.230;2022-12-20T08:27:48;65.03;;;39.65;;
10987;SDS011;5547;42.672;23.230;2022-12-20T08:30:48;68.40;;;40.93;;
10987;SDS011;5547;42.672;23.230;2022-12-20T08:33:49;74.77;;;42.17;;
10987;SDS011;5547;42.672;23.230;2022-12-20T08:36:53;63.85;;;39.40;;
10987;SDS011;5547;42.672;23.230;2022-12-20T08:39:53;63.23;;;38.93;;
10987;SDS011;5547;42.672;23.230;2022-12-20T08:42:53;62.97;;;38.30;;
10987;SDS011;5547;42.672;23.230;2022-12-20T08:45:54;72.97;;;42.37;;
10987;SDS011;5547;42.672;23.230;2022-12-20T08:48:55;63.20;;;39.05;;
10987;SDS011;5547;42.672;23.230;2022-12-20T08:51:55;64.07;;;39.63;;
10987;SDS011;5547;42.672;23.230;2022-12-20T08:54:56;62.92;;;39.33;;
10987;SDS011;5547;42.672;23.230;2022-12-20T08:57:56;61.78;;;39.40;;
10987;SDS011;5547;42.672;23.230;2022-12-20T09:01:00;64.13;;;38.67;;
10987;SDS011;5547;42.672;23.230;2022-12-20T09:04:02;63.83;;;38.97;;
10987;SDS011;5547;42.672;23.230;2022-12-20T09:07:03;64.75;;;39.50;;
10987;SDS011;5547;42.672;23.230;2022-12-20T09:10:04;62.43;;;38.90;;
10987;SDS011;5547;42.672;23.230;2022-12-20T09:13:05;94.72;;;47.50;;
10987;SDS011;5547;42.672;23.230;2022-12-20T09:16:05;64.77;;;39.97;;
10987;SDS011;5547;42.672;23.230;2022-12-20T09:19:09;64.85;;;39.95;;
10987;SDS011;5547;42.672;23.230;2022-12-20T09:22:11;64.20;;;39.22;;
10987;SDS011;5547;42.672;23.230;2022-12-20T09:25:11;62.40;;;39.13;;
10987;SDS011;5547;42.672;23.230;2022-12-20T09:28:13;62.00;;;39.20;;
10987;SDS011;5547;42.672;23.230;2022-12-20T09:31:14;64.07;;;39.57;;
10987;SDS011;5547;42.672;23.230;2022-12-20T09:34:16;64.15;;;40.22;;
10987;SDS011;5547;42.672;23.230;2022-12-20T09:37:17;66.47;;;39.93;;
10987;SDS011;5547;42.672;23.230;2022-12-20T09:40:18;64.67;;;40.03;;
10987;SDS011;5547;42.672;23.230;2022-12-20T09:43:21;60.37;;;39.47;;
10987;SDS011;5547;42.672;23.230;2022-12-20T09:46:22;65.18;;;40.25;;
10987;SDS011;5547;42.672;23.230;2022-12-20T09:49:25;67.15;;;40.75;;
10987;SDS011;5547;42.672;23.230;2022-12-20T09:56:05;66.45;;;39.70;;
10987;SDS011;5547;42.672;23.230;2022-12-20T09:59:13;65.03;;;40.22;;
10987;SDS011;5547;42.672;23.230;2022-12-20T10:02:21;63.70;;;40.00;;
10987;SDS011;5547;42.672;23.230;2022-12-20T10:05:34;66.50;;;41.03;;
10987;SDS011;5547;42.672;23.230;2022-12-20T10:15:21;70.90;;;40.80;;
10987;SDS011;5547;42.672;23.230;2022-12-20T10:18:40;71.45;;;40.55;;
10987;SDS011;5547;42.672;23.230;2022-12-20T10:28:32;65.32;;;40.28;;
10987;SDS011;5547;42.672;23.230;2022-12-20T10:31:34;67.65;;;40.67;;
10987;SDS011;5547;42.672;23.230;2022-12-20T10:34:35;66.93;;;40.38;;
10987;SDS011;5547;42.672;23.230;2022-12-20T10:37:35;70.67;;;40.50;;
10987;SDS011;5547;42.672;23.230;2022-12-20T10:40:38;75.10;;;42.72;;
10987;SDS011;5547;42.672;23.230;2022-12-20T10:43:42;73.07;;;41.13;;
10987;SDS011;5547;42.672;23.230;2022-12-20T10:46:45;69.13;;;40.58;;
10987;SDS011;5547;42.672;23.230;2022-12-20T10:49:49;66.10;;;39.75;;
10987;SDS011;5547;42.672;23.230;2022-12-20T10:53:07;64.33;;;39.53;;
10987;SDS011;5547;42.672;23.230;2022-12-20T10:56:25;65.82;;;39.13;;
10987;SDS011;5547;42.672;23.230;2022-12-20T10:59:35;66.13;;;39.63;;
10987;SDS011;5547;42.672;23.230;2022-12-20T11:02:39;66.53;;;39.35;;
10987;SDS011;5547;42.672;23.230;2022-12-20T11:05:48;67.43;;;40.07;;
10987;SDS011;5547;42.672;23.230;2022-12-20T11:12:19;70.53;;;40.85;;
10987;SDS011;5547;42.672;23.230;2022-12-20T11:15:29;66.57;;;39.77;;
10987;SDS011;5547;42.672;23.230;2022-12-20T11:19:05;64.93;;;39.90;;
10987;SDS011;5547;42.672;23.230;2022-12-20T11:42:11;65.75;;;38.97;;
10987;SDS011;5547;42.672;23.230;2022-12-20T11:45:30;64.77;;;39.03;;
10987;SDS011;5547;42.672;23.230;2022-12-20T11:55:33;66.32;;;40.38;;
10987;SDS011;5547;42.672;23.230;2022-12-20T11:58:22;62.53;;;39.80;;
10987;SDS011;5547;42.672;23.230;2022-12-20T12:01:37;68.50;;;40.92;;
10987;SDS011;5547;42.672;23.230;2022-12-20T12:04:45;68.37;;;39.87;;
10987;SDS011;5547;42.672;23.230;2022-12-20T12:07:51;64.40;;;39.50;;
10987;SDS011;5547;42.672;23.230;2022-12-20T12:10:59;66.45;;;39.65;;
10987;SDS011;5547;42.672;23.230;2022-12-20T12:14:15;64.20;;;39.90;;
10987;SDS011;5547;42.672;23.230;2022-12-20T12:24:31;62.80;;;38.95;;
10987;SDS011;5547;42.672;23.230;2022-12-20T12:27:38;66.70;;;39.25;;
10987;SDS011;5547;42.672;23.230;2022-12-20T12:30:40;65.37;;;39.33;;
10987;SDS011;5547;42.672;23.230;2022-12-20T12:33:49;65.40;;;39.75;;
10987;SDS011;5547;42.672;23.230;2022-12-20T12:43:30;66.03;;;40.20;;
10987;SDS011;5547;42.672;23.230;2022-12-20T12:46:58;67.28;;;40.75;;
10987;SDS011;5547;42.672;23.230;2022-12-20T12:50:02;67.82;;;40.15;;
10987;SDS011;5547;42.672;23.230;2022-12-20T12:53:11;66.97;;;40.13;;
10987;SDS011;5547;42.672;23.230;2022-12-20T13:02:32;62.28;;;39.30;;
10987;SDS011;5547;42.672;23.230;2022-12-20T13:05:34;72.63;;;40.33;;
10987;SDS011;5547;42.672;23.230;2022-12-20T13:18:51;65.97;;;40.57;;
10987;SDS011;5547;42.672;23.230;2022-12-20T13:25:18;66.35;;;40.20;;
10987;SDS011;5547;42.672;23.230;2022-12-20T13:31:29;67.03;;;40.60;;
10987;SDS011;5547;42.672;23.230;2022-12-20T13:34:35;68.97;;;40.15;;
10987;SDS011;5547;42.672;23.230;2022-12-20T13:37:54;64.38;;;40.45;;
10987;SDS011;5547;42.672;23.230;2022-12-20T13:44:44;66.90;;;40.33;;
10987;SDS011;5547;42.672;23.230;2022-12-20T13:47:47;66.57;;;39.67;;
10987;SDS011;5547;42.672;23.230;2022-12-20T13:50:53;62.88;;;39.70;;
10987;SDS011;5547;42.672;23.230;2022-12-20T13:57:06;64.72;;;39.40;;
10987;SDS011;5547;42.672;23.230;2022-12-20T14:00:15;64.03;;;40.67;;
10987;SDS011;5547;42.672;23.230;2022-12-20T14:03:26;78.35;;;46.05;;
10987;SDS011;5547;42.672;23.230;2022-12-20T14:06:29;74.80;;;46.35;;
10987;SDS011;5547;42.672;23.230;2022-12-20T14:09:31;69.83;;;43.77;;
10987;SDS011;5547;42.672;23.230;2022-12-20T14:12:34;76.65;;;42.70;;
10987;SDS011;5547;42.672;23.230;2022-12-20T14:15:34;69.15;;;41.83;;
10987;SDS011;5547;42.672;23.230;2022-12-20T14:18:35;65.88;;;40.00;;
10987;SDS011;5547;42.672;23.230;2022-12-20T14:21:37;64.57;;;39.47;;
10987;SDS011;5547;42.672;23.230;2022-12-20T14:24:41;64.63;;;39.67;;
10987;SDS011;5547;42.672;23.230;2022-12-20T14:27:43;64.93;;;39.53;;
10987;SDS011;5547;42.672;23.230;2022-12-20T14:30:45;65.63;;;39.58;;
10987;SDS011;5547;42.672;23.230;2022-12-20T14:33:47;60.72;;;38.90;;
10987;SDS011;5547;42.672;23.230;2022-12-20T14:36:49;61.65;;;38.92;;
10987;SDS011;5547;42.672;23.230;2022-12-20T14:39:54;65.18;;;38.65;;
10987;SDS011;5547;42.672;23.230;2022-12-20T14:42:57;65.53;;;39.10;;
10987;SDS011;5547;42.672;23.230;2022-12-20T14:49:35;63.80;;;38.63;;
10987;SDS011;5547;42.672;23.230;2022-12-20T14:52:38;67.60;;;39.35;;
10987;SDS011;5547;42.672;23.230;2022-12-20T14:55:43;67.57;;;39.63;;
10987;SDS011;5547;42.672;23.230;2022-12-20T14:58:45;66.35;;;39.25;;
10987;SDS011;5547;42.672;23.230;2022-12-20T15:01:49;63.88;;;38.45;;
10987;SDS011;5547;42.672;23.230;2022-12-20T15:04:50;62.03;;;37.97;;
10987;SDS011;5547;42.672;23.230;2022-12-20T15:07:51;62.25;;;37.55;;
10987;SDS011;5547;42.672;23.230;2022-12-20T15:13:55;60.33;;;37.42;;
10987;SDS011;5547;42.672;23.230;2022-12-20T15:16:57;62.40;;;37.45;;
10987;SDS011;5547;42.672;23.230;2022-12-20T15:19:58;63.10;;;39.03;;
10987;SDS011;5547;42.672;23.230;2022-12-20T15:22:58;64.00;;;38.87;;
10987;SDS011;5547;42.672;23.230;2022-12-20T15:25:59;63.53;;;38.88;;
10987;SDS011;5547;42.672;23.230;2022-12-20T15:28:59;63.30;;;39.30;;
10987;SDS011;5547;42.672;23.230;2022-12-20T15:32:04;67.57;;;39.30;;
10987;SDS011;5547;42.672;23.230;2022-12-20T15:35:05;61.35;;;38.35;;
10987;SDS011;5547;42.672;23.230;2022-12-20T15:38:15;64.70;;;39.45;;
10987;SDS011;5547;42.672;23.230;2022-12-20T15:41:24;64.32;;;38.78;;
10987;SDS011;5547;42.672;23.230;2022-12-20T15:44:28;70.47;;;39.85;;
10987;SDS011;5547;42.672;23.230;2022-12-20T15:47:31;67.45;;;40.45;;
10987;SDS011;5547;42.672;23.230;2022-12-20T15:50:31;65.87;;;40.70;;
10987;SDS011;5547;42.672;23.230;2022-12-20T15:53:32;69.90;;;41.57;;
10987;SDS011;5547;42.672;23.230;2022-12-20T15:56:33;67.85;;;40.55;;
10987;SDS011;5547;42.672;23.230;2022-12-20T15:59:34;63.63;;;39.40;;
10987;SDS011;5547;42.672;23.230;2022-12-20T16:02:34;68.75;;;40.22;;
10987;SDS011;5547;42.672;23.230;2022-12-20T16:05:35;67.97;;;40.83;;
10987;SDS011;5547;42.672;23.230;2022-12-20T16:08:36;70.97;;;41.35;;
10987;SDS011;5547;42.672;23.230;2022-12-20T16:11:37;80.70;;;45.10;;
10987;SDS011;5547;42.672;23.230;2022-12-20T16:14:38;67.60;;;40.95;;
10987;SDS011;5547;42.672;23.230;2022-12-20T16:17:39;85.28;;;48.58;;
10987;SDS011;5547;42.672;23.230;2022-12-20T16:20:39;86.33;;;48.37;;
10987;SDS011;5547;42.672;23.230;2022-12-20T16:23:40;77.80;;;45.20;;
10987;SDS011;5547;42.672;23.230;2022-12-20T16:26:41;82.85;;;45.95;;
10987;SDS011;5547;42.672;23.230;2022-12-20T16:29:42;78.22;;;43.30;;
10987;SDS011;5547;42.672;23.230;2022-12-20T16:32:42;78.00;;;43.80;;
10987;SDS011;5547;42.672;23.230;2022-12-20T16:35:43;72.60;;;44.10;;
10987;SDS011;5547;42.672;23.230;2022-12-20T16:38:43;74.22;;;42.88;;
10987;SDS011;5547;42.672;23.230;2022-12-20T16:41:44;66.00;;;40.70;;
10987;SDS011;5547;42.672;23.230;2022-12-20T16:44:44;68.37;;;40.10;;
10987;SDS011;5547;42.672;23.230;2022-12-20T16:47:49;66.45;;;40.33;;
10987;SDS011;5547;42.672;23.230;2022-12-20T16:50:52;68.87;;;40.77;;
10987;SDS011;5547;42.672;23.230;2022-12-20T16:57:22;71.25;;;42.50;;
10987;SDS011;5547;42.672;23.230;2022-12-20T17:00:25;73.53;;;40.97;;
10987;SDS011;5547;42.672;23.230;2022-12-20T17:03:27;68.75;;;40.53;;
10987;SDS011;5547;42.672;23.230;2022-12-20T17:06:27;77.90;;;44.33;;
10987;SDS011;5547;42.672;23.230;2022-12-20T17:09:28;70.13;;;41.65;;
10987;SDS011;5547;42.672;23.230;2022-12-20T17:12:28;67.30;;;41.30;;
10987;SDS011;5547;42.672;23.230;2022-12-20T17:15:29;71.23;;;42.20;;
10987;SDS011;5547;42.672;23.230;2022-12-20T17:18:33;72.03;;;42.67;;
10987;SDS011;5547;42.672;23.230;2022-12-20T17:24:35;75.55;;;44.78;;
10987;SDS011;5547;42.672;23.230;2022-12-20T17:27:35;82.23;;;45.80;;
10987;SDS011;5547;42.672;23.230;2022-12-20T17:30:36;78.15;;;45.38;;
10987;SDS011;5547;42.672;23.230;2022-12-20T17:33:37;75.30;;;43.80;;
10987;SDS011;5547;42.672;23.230;2022-12-20T17:36:37;71.00;;;43.07;;
10987;SDS011;5547;42.672;23.230;2022-12-20T17:39:38;76.03;;;44.83;;
10987;SDS011;5547;42.672;23.230;2022-12-20T17:42:38;78.45;;;45.90;;
10987;SDS011;5547;42.672;23.230;2022-12-20T17:45:38;79.73;;;44.43;;
10987;SDS011;5547;42.672;23.230;2022-12-20T17:48:40;72.85;;;44.25;;
10987;SDS011;5547;42.672;23.230;2022-12-20T17:51:40;80.27;;;44.90;;
10987;SDS011;5547;42.672;23.230;2022-12-20T17:54:41;83.50;;;50.40;;
10987;SDS011;5547;42.672;23.230;2022-12-20T17:57:41;77.90;;;46.27;;
10987;SDS011;5547;42.672;23.230;2022-12-20T18:00:42;81.13;;;47.93;;
10987;SDS011;5547;42.672;23.230;2022-12-20T18:03:42;79.75;;;46.75;;
10987;SDS011;5547;42.672;23.230;2022-12-20T18:06:43;78.47;;;45.33;;
10987;SDS011;5547;42.672;23.230;2022-12-20T18:09:45;75.67;;;44.33;;
10987;SDS011;5547;42.672;23.230;2022-12-20T18:12:47;76.32;;;44.55;;
10987;SDS011;5547;42.672;23.230;2022-12-20T18:15:47;72.47;;;43.47;;
10987;SDS011;5547;42.672;23.230;2022-12-20T18:18:48;71.63;;;43.10;;
10987;SDS011;5547;42.672;23.230;2022-12-20T18:21:49;76.65;;;43.10;;
10987;SDS011;5547;42.672;23.230;2022-12-20T18:24:49;70.60;;;42.43;;
10987;SDS011;5547;42.672;23.230;2022-12-20T18:27:49;77.35;;;44.60;;
10987;SDS011;5547;42.672;23.230;2022-12-20T18:30:50;72.57;;;43.83;;
10987;SDS011;5547;42.672;23.230;2022-12-20T18:33:51;79.55;;;46.42;;
10987;SDS011;5547;42.672;23.230;2022-12-20T18:36:53;90.93;;;51.23;;
10987;SDS011;5547;42.672;23.230;2022-12-20T18:39:54;69.78;;;42.17;;
10987;SDS011;5547;42.672;23.230;2022-12-20T18:42:54;79.97;;;45.97;;
10987;SDS011;5547;42.672;23.230;2022-12-20T18:45:55;103.50;;;56.85;;
10987;SDS011;5547;42.672;23.230;2022-12-20T18:48:56;95.65;;;58.25;;
10987;SDS011;5547;42.672;23.230;2022-12-20T18:51:58;86.78;;;49.97;;
10987;SDS011;5547;42.672;23.230;2022-12-20T18:54:59;73.47;;;42.90;;
10987;SDS011;5547;42.672;23.230;2022-12-20T18:57:59;67.80;;;41.65;;
10987;SDS011;5547;42.672;23.230;2022-12-20T19:01:01;69.20;;;41.60;;
10987;SDS011;5547;42.672;23.230;2022-12-20T19:04:04;69.80;;;42.10;;
10987;SDS011;5547;42.672;23.230;2022-12-20T19:07:06;70.47;;;41.30;;
10987;SDS011;5547;42.672;23.230;2022-12-20T19:10:07;67.38;;;41.60;;
10987;SDS011;5547;42.672;23.230;2022-12-20T19:13:07;65.90;;;40.63;;
10987;SDS011;5547;42.672;23.230;2022-12-20T19:16:12;66.68;;;41.47;;
10987;SDS011;5547;42.672;23.230;2022-12-20T19:19:14;65.35;;;40.42;;
10987;SDS011;5547;42.672;23.230;2022-12-20T19:22:14;66.83;;;41.13;;
10987;SDS011;5547;42.672;23.230;2022-12-20T19:25:15;66.87;;;42.20;;
10987;SDS011;5547;42.672;23.230;2022-12-20T19:28:15;66.50;;;42.60;;
10987;SDS011;5547;42.672;23.230;2022-12-20T19:31:17;68.40;;;41.23;;
10987;SDS011;5547;42.672;23.230;2022-12-20T19:34:22;66.55;;;40.80;;
10987;SDS011;5547;42.672;23.230;2022-12-20T19:37:22;69.37;;;41.47;;
10987;SDS011;5547;42.672;23.230;2022-12-20T19:40:23;79.45;;;43.47;;